Terminal Aerodrome Forecast
Issued by NWS Goodland, KS

Home | Current Version | Previous Version | Text Only | Print | Product List | Glossary On
Versions: 1 2 3 4 5 6 7 8 9 10 11 12 13 14 15 16
000
FTUS43 KGLD 301129
TAFGLD
TAF
KGLD 301129Z 3012/3112 30010KT P6SM SKC
     FM301700 34013G20KT P6SM FEW250
     FM302300 03005KT P6SM FEW250
     FM311000 VRB05KT 2SM BR BKN005=

USA.gov is the U.S. government's official web portal to all federal, state and local government web resources and services.